createdAt,value
2023-05-09T00:01:14.099Z,18.80
2023-05-09T00:03:42.794Z,18.80
2023-05-09T00:06:10.108Z,18.80
2023-05-09T00:08:37.020Z,18.80
2023-05-09T00:11:04.163Z,18.80
2023-05-09T00:13:31.069Z,18.80
2023-05-09T00:15:58.019Z,18.80
2023-05-09T00:18:25.043Z,18.80
2023-05-09T00:20:53.349Z,18.80
2023-05-09T00:23:20.308Z,18.80
2023-05-09T00:25:47.241Z,18.70
2023-05-09T00:28:14.174Z,18.70
2023-05-09T00:30:41.113Z,18.70
2023-05-09T00:33:08.158Z,18.70
2023-05-09T00:35:35.165Z,18.70
2023-05-09T00:38:03.507Z,18.70
2023-05-09T00:40:30.638Z,18.70
2023-05-09T00:42:58.883Z,18.70
2023-05-09T00:45:25.784Z,18.70
2023-05-09T00:47:52.851Z,18.70
2023-05-09T00:50:20.070Z,18.70
2023-05-09T00:52:47.000Z,18.70
2023-05-09T00:55:15.542Z,18.60
2023-05-09T00:57:42.644Z,18.60
2023-05-09T01:00:10.702Z,18.60
2023-05-09T01:02:37.704Z,18.60
2023-05-09T01:05:05.082Z,18.60
2023-05-09T01:07:35.552Z,18.50
2023-05-09T01:10:05.929Z,18.60
2023-05-09T01:12:39.652Z,18.50
2023-05-09T01:15:08.716Z,18.50
2023-05-09T01:17:40.524Z,18.50
2023-05-09T01:20:12.557Z,18.50
2023-05-09T01:22:42.068Z,18.50
2023-05-09T01:25:44.025Z,18.50
2023-05-09T01:28:19.272Z,18.50
2023-05-09T01:30:47.670Z,18.40
2023-05-09T01:33:17.553Z,18.40
2023-05-09T01:35:44.957Z,18.40
2023-05-09T01:38:15.382Z,18.40
2023-05-09T01:40:42.515Z,18.30
2023-05-09T01:43:09.794Z,18.40
2023-05-09T01:45:36.833Z,18.40
2023-05-09T01:48:05.584Z,18.40
2023-05-09T01:50:32.568Z,18.40
2023-05-09T01:52:59.473Z,18.30
2023-05-09T01:55:27.960Z,18.30
2023-05-09T01:57:54.902Z,18.30
2023-05-09T02:00:21.930Z,18.30
2023-05-09T02:02:49.151Z,18.30
2023-05-09T02:05:17.740Z,18.30
2023-05-09T02:07:45.006Z,18.30
2023-05-09T02:10:11.874Z,18.30
2023-05-09T02:12:38.775Z,18.30
2023-05-09T02:15:07.062Z,18.30
2023-05-09T02:17:34.190Z,18.30
2023-05-09T02:20:01.126Z,18.20
2023-05-09T02:22:29.522Z,18.20
2023-05-09T02:24:57.012Z,18.20
2023-05-09T02:27:23.918Z,18.20
2023-05-09T02:29:51.580Z,18.20
2023-05-09T02:32:22.927Z,18.20
2023-05-09T02:34:50.660Z,18.20
2023-05-09T02:37:17.697Z,18.20
2023-05-09T02:39:46.082Z,18.20
2023-05-09T02:42:15.717Z,18.20
2023-05-09T02:44:42.635Z,18.20
2023-05-09T02:47:09.534Z,18.20
2023-05-09T02:49:36.419Z,18.20
2023-05-09T02:52:03.415Z,18.20
2023-05-09T02:54:30.333Z,18.20
2023-05-09T02:56:58.695Z,18.20
2023-05-09T02:59:25.987Z,18.20
2023-05-09T03:01:52.938Z,18.10
2023-05-09T03:04:19.905Z,18.10
2023-05-09T03:06:46.930Z,18.10
2023-05-09T03:09:13.877Z,18.10
2023-05-09T03:11:40.783Z,18.10
2023-05-09T03:14:09.094Z,18.10
2023-05-09T03:16:36.122Z,18.10
2023-05-09T03:19:03.142Z,18.10
2023-05-09T03:21:30.179Z,18.10
2023-05-09T03:23:57.196Z,18.10
2023-05-09T03:26:24.160Z,18.10
2023-05-09T03:28:51.085Z,18.10
2023-05-09T03:31:19.390Z,18.10
2023-05-09T03:33:46.355Z,18.10
2023-05-09T03:36:13.319Z,18.10
2023-05-09T03:38:40.242Z,18.10
2023-05-09T03:41:07.178Z,18.10
2023-05-09T03:43:34.074Z,18.10
2023-05-09T03:46:00.961Z,18.10
2023-05-09T03:48:29.315Z,18.10
2023-05-09T03:50:56.304Z,18.10
2023-05-09T03:53:23.452Z,18.10
2023-05-09T03:55:50.387Z,18.10
2023-05-09T03:58:17.304Z,18.10
2023-05-09T04:00:44.208Z,18.10
2023-05-09T04:03:11.204Z,18.10
2023-05-09T04:05:39.587Z,18.10
2023-05-09T04:08:06.472Z,18.10
2023-05-09T04:10:33.397Z,18.00
2023-05-09T04:13:00.361Z,18.00
2023-05-09T04:15:27.260Z,18.00
2023-05-09T04:17:54.339Z,18.10
2023-05-09T04:20:21.494Z,17.70
2023-05-09T04:22:49.827Z,18.00
2023-05-09T04:25:17.124Z,18.00
2023-05-09T04:27:44.258Z,18.00
2023-05-09T04:30:12.043Z,18.00
2023-05-09T04:32:39.088Z,18.00
2023-05-09T04:35:07.126Z,18.00
2023-05-09T04:37:34.333Z,18.00
2023-05-09T04:40:02.587Z,18.00
2023-05-09T04:42:29.519Z,18.00
2023-05-09T04:44:56.462Z,18.00
2023-05-09T04:47:23.407Z,18.00
2023-05-09T04:49:50.396Z,18.00
2023-05-09T04:52:17.341Z,18.00
2023-05-09T04:54:44.363Z,18.00
2023-05-09T04:57:18.059Z,18.00
2023-05-09T04:59:45.653Z,18.00
2023-05-09T05:02:12.585Z,18.00
2023-05-09T05:04:39.537Z,18.00
2023-05-09T05:07:06.495Z,18.00
2023-05-09T05:09:33.472Z,18.00
2023-05-09T05:12:02.654Z,18.00
2023-05-09T05:14:32.717Z,18.00
2023-05-09T05:16:59.742Z,18.00
2023-05-09T05:19:26.739Z,17.90
2023-05-09T05:21:53.686Z,18.00
2023-05-09T05:24:20.655Z,17.90
2023-05-09T05:26:47.570Z,17.90
2023-05-09T05:29:14.537Z,17.90
2023-05-09T05:31:42.914Z,17.90
2023-05-09T05:34:09.881Z,17.90
2023-05-09T05:36:36.941Z,17.90
2023-05-09T05:39:03.976Z,17.90
2023-05-09T05:41:30.990Z,17.90
2023-05-09T05:43:57.937Z,17.90
2023-05-09T05:46:24.903Z,17.90
2023-05-09T05:48:53.209Z,17.90
2023-05-09T05:51:20.212Z,17.90
2023-05-09T05:53:47.228Z,17.90
2023-05-09T05:56:14.193Z,17.90
2023-05-09T05:58:41.134Z,17.90
2023-05-09T06:01:08.009Z,16.40
2023-05-09T06:03:35.029Z,17.90
2023-05-09T06:06:03.435Z,17.90
2023-05-09T06:08:30.737Z,17.90
2023-05-09T06:10:57.627Z,17.90
2023-05-09T06:13:24.557Z,17.90
2023-05-09T06:15:51.571Z,17.90
2023-05-09T06:18:18.490Z,17.90
2023-05-09T06:20:45.463Z,17.90
2023-05-09T06:23:13.843Z,17.90
2023-05-09T06:25:40.735Z,17.90
2023-05-09T06:28:07.776Z,17.90
2023-05-09T06:30:34.752Z,17.90
2023-05-09T06:33:01.709Z,17.90
2023-05-09T06:35:28.653Z,17.90
2023-05-09T06:37:55.581Z,17.90
2023-05-09T06:40:23.906Z,17.90
2023-05-09T06:42:50.829Z,17.90
2023-05-09T06:45:18.192Z,17.90
2023-05-09T06:47:45.414Z,18.40
2023-05-09T06:50:12.363Z,17.90
2023-05-09T06:52:39.244Z,17.90
2023-05-09T06:55:07.658Z,17.90
2023-05-09T06:57:36.057Z,17.90
2023-05-09T07:00:03.135Z,17.90
2023-05-09T07:02:30.136Z,17.90
2023-05-09T07:04:57.141Z,17.90
2023-05-09T07:07:24.069Z,17.90
2023-05-09T07:09:53.104Z,17.90
2023-05-09T07:12:22.323Z,17.90
2023-05-09T07:14:50.593Z,17.90
2023-05-09T07:17:23.529Z,17.90
2023-05-09T07:19:50.845Z,17.90
2023-05-09T07:22:18.007Z,17.90
2023-05-09T07:24:44.934Z,18.00
2023-05-09T07:27:11.835Z,18.00
2023-05-09T07:29:38.724Z,18.00
2023-05-09T07:32:07.330Z,18.00
2023-05-09T07:34:34.386Z,18.00
2023-05-09T07:37:01.428Z,18.00
2023-05-09T07:39:28.396Z,18.00
2023-05-09T07:41:55.316Z,18.00
2023-05-09T07:44:22.204Z,18.00
2023-05-09T07:46:49.113Z,18.00
2023-05-09T07:49:17.404Z,18.00
2023-05-09T07:51:44.328Z,18.00
2023-05-09T07:54:11.562Z,18.00
2023-05-09T07:56:38.566Z,18.00
2023-05-09T07:59:05.546Z,18.00
2023-05-09T08:01:32.515Z,18.10
2023-05-09T08:03:59.699Z,18.10
2023-05-09T08:06:28.009Z,18.10
2023-05-09T08:08:54.918Z,18.10
2023-05-09T08:11:21.849Z,18.00
2023-05-09T08:13:48.770Z,18.10
2023-05-09T08:16:15.732Z,18.10
2023-05-09T08:18:42.683Z,18.10
2023-05-09T08:21:09.607Z,18.10
2023-05-09T08:23:37.934Z,18.00
2023-05-09T08:26:04.851Z,18.10
2023-05-09T08:28:31.855Z,18.10
2023-05-09T08:30:58.825Z,18.10
2023-05-09T08:33:25.690Z,18.10
2023-05-09T08:35:52.571Z,18.10
2023-05-09T08:38:19.553Z,18.10
2023-05-09T08:40:47.903Z,18.00
2023-05-09T08:43:15.975Z,18.10
2023-05-09T08:45:45.756Z,18.10
2023-05-09T08:48:12.783Z,18.10
2023-05-09T08:50:39.680Z,18.10
2023-05-09T08:53:07.004Z,18.10
2023-05-09T08:55:33.918Z,18.10
2023-05-09T08:58:02.218Z,18.10
2023-05-09T09:00:29.127Z,18.10
2023-05-09T09:02:56.281Z,18.00
2023-05-09T09:05:40.269Z,18.10
2023-05-09T09:08:08.875Z,18.10
2023-05-09T09:10:35.854Z,19.40
2023-05-09T09:13:04.125Z,18.10
2023-05-09T09:15:34.480Z,18.10
2023-05-09T09:18:05.281Z,18.10
2023-05-09T09:20:32.884Z,18.10
2023-05-09T09:22:59.992Z,18.10
2023-05-09T09:25:26.928Z,18.10
2023-05-09T09:27:53.853Z,18.10
2023-05-09T09:30:23.730Z,18.00
2023-05-09T09:32:50.658Z,18.10
2023-05-09T09:35:17.616Z,18.10
2023-05-09T09:37:44.612Z,18.10
2023-05-09T09:40:12.376Z,18.10
2023-05-09T09:42:42.445Z,18.10
2023-05-09T09:45:10.811Z,18.10
2023-05-09T09:47:39.409Z,18.10
2023-05-09T09:50:10.406Z,18.10
2023-05-09T09:52:37.378Z,18.10
2023-05-09T09:55:04.822Z,18.10
2023-05-09T09:57:34.852Z,18.10
2023-05-09T10:00:01.812Z,18.20
2023-05-09T10:02:28.751Z,18.10
2023-05-09T10:04:57.043Z,18.10
2023-05-09T10:07:23.969Z,18.20
2023-05-09T10:09:50.970Z,18.20
2023-05-09T10:12:17.900Z,18.20
2023-05-09T10:14:44.762Z,18.20
2023-05-09T10:17:13.539Z,18.20
2023-05-09T10:19:41.718Z,18.20
2023-05-09T10:22:10.533Z,18.20
2023-05-09T10:24:40.217Z,18.20
2023-05-09T10:27:09.573Z,18.30
2023-05-09T10:29:37.670Z,18.30
2023-05-09T10:32:09.046Z,18.20
2023-05-09T10:34:35.930Z,18.30
2023-05-09T10:37:02.866Z,18.30
2023-05-09T10:39:31.121Z,18.30
2023-05-09T10:41:58.687Z,18.30
2023-05-09T10:44:25.610Z,18.30
2023-05-09T10:46:52.630Z,18.50
2023-05-09T10:49:19.581Z,18.40
2023-05-09T10:51:46.508Z,18.40
2023-05-09T10:54:26.262Z,18.40
2023-05-09T10:56:54.571Z,18.40
2023-05-09T10:59:45.597Z,18.40
2023-05-09T11:02:13.338Z,18.40
2023-05-09T11:04:40.519Z,18.40
2023-05-09T11:07:07.697Z,18.40
2023-05-09T11:09:35.068Z,18.40
2023-05-09T11:12:08.527Z,18.50
2023-05-09T11:14:42.605Z,18.50
2023-05-09T11:17:10.527Z,18.70
2023-05-09T11:19:38.848Z,18.50
2023-05-09T11:22:12.853Z,18.50
2023-05-09T11:24:39.781Z,18.50
2023-05-09T11:27:14.903Z,18.50
2023-05-09T11:29:45.742Z,18.60
2023-05-09T11:32:14.124Z,18.60
2023-05-09T11:34:42.670Z,18.60
2023-05-09T11:37:10.210Z,18.60
2023-05-09T11:39:42.311Z,18.60
2023-05-09T11:42:10.554Z,18.60
2023-05-09T11:44:37.428Z,18.60
2023-05-09T11:47:04.363Z,18.60
2023-05-09T11:49:31.319Z,18.70
2023-05-09T11:51:59.885Z,18.70
2023-05-09T11:54:26.749Z,18.70
2023-05-09T11:56:53.578Z,18.70
2023-05-09T11:59:21.914Z,18.70
2023-05-09T12:01:48.782Z,18.70
2023-05-09T12:04:15.726Z,18.70
2023-05-09T12:06:47.229Z,18.70
2023-05-09T12:09:14.071Z,18.80
2023-05-09T12:11:49.368Z,18.80
2023-05-09T12:14:28.209Z,18.80
2023-05-09T12:16:55.041Z,18.80
2023-05-09T12:19:22.736Z,18.80
2023-05-09T12:21:49.601Z,18.80
2023-05-09T12:24:20.608Z,18.80
2023-05-09T12:26:47.775Z,18.90
2023-05-09T12:29:14.686Z,18.80
2023-05-09T12:31:43.032Z,18.80
2023-05-09T12:34:09.903Z,18.90
2023-05-09T12:36:36.839Z,18.90
2023-05-09T12:39:07.363Z,18.90
2023-05-09T12:41:41.398Z,18.90
2023-05-09T12:44:17.761Z,18.90
2023-05-09T12:46:57.797Z,18.90
2023-05-09T12:49:24.821Z,19.00
2023-05-09T12:51:52.249Z,18.90
2023-05-09T12:54:22.349Z,19.00
2023-05-09T12:56:49.358Z,19.00
2023-05-09T12:59:16.445Z,19.00
2023-05-09T13:01:43.310Z,19.00
2023-05-09T13:04:12.762Z,19.00
2023-05-09T13:06:48.144Z,19.00
2023-05-09T13:09:15.160Z,19.10
2023-05-09T13:11:42.032Z,19.00
2023-05-09T13:14:09.038Z,19.00
2023-05-09T13:16:35.961Z,19.00
2023-05-09T13:19:02.826Z,19.10
2023-05-09T13:21:31.090Z,19.10
2023-05-09T13:23:58.001Z,19.10
2023-05-09T13:26:24.954Z,19.10
2023-05-09T13:28:51.825Z,19.20
2023-05-09T13:31:18.878Z,19.10
2023-05-09T13:33:45.862Z,19.20
2023-05-09T13:36:12.757Z,19.20
2023-05-09T13:38:41.216Z,19.20
2023-05-09T13:41:08.207Z,19.20
2023-05-09T13:43:35.101Z,19.20
2023-05-09T13:46:01.995Z,19.20
2023-05-09T13:48:29.067Z,19.20
2023-05-09T13:50:55.969Z,19.30
2023-05-09T13:53:22.955Z,19.20
2023-05-09T13:55:51.209Z,19.30
2023-05-09T13:58:18.121Z,19.30
2023-05-09T14:00:44.964Z,19.30
2023-05-09T14:03:11.857Z,19.30
2023-05-09T14:05:38.719Z,19.30
2023-05-09T14:08:05.656Z,19.30
2023-05-09T14:10:32.557Z,19.40
2023-05-09T14:13:00.858Z,19.40
2023-05-09T14:15:27.820Z,19.40
2023-05-09T14:17:54.700Z,19.40
2023-05-09T14:20:21.567Z,19.40
2023-05-09T14:22:48.470Z,19.40
2023-05-09T14:25:15.456Z,19.40
2023-05-09T14:27:42.349Z,19.40
2023-05-09T14:30:11.873Z,19.40
2023-05-09T14:32:38.848Z,19.40
2023-05-09T14:35:06.736Z,19.30
2023-05-09T14:37:33.719Z,19.30
2023-05-09T14:40:00.566Z,19.30
2023-05-09T14:42:27.459Z,19.30
2023-05-09T14:44:54.419Z,19.30
2023-05-09T14:47:22.730Z,19.30
2023-05-09T14:49:49.627Z,19.30
2023-05-09T14:52:16.497Z,19.30
2023-05-09T14:54:43.357Z,19.30
2023-05-09T14:57:10.229Z,19.30
2023-05-09T14:59:37.321Z,19.30
2023-05-09T15:02:04.280Z,19.30
2023-05-09T15:04:32.558Z,19.30
2023-05-09T15:06:59.452Z,19.30
2023-05-09T15:09:26.379Z,19.30
2023-05-09T15:11:53.609Z,19.30
2023-05-09T15:14:20.455Z,19.40
2023-05-09T15:16:47.426Z,19.40
2023-05-09T15:19:14.335Z,19.40
2023-05-09T15:21:42.599Z,19.40
2023-05-09T15:24:09.504Z,19.40
2023-05-09T15:26:36.421Z,19.50
2023-05-09T15:29:03.343Z,19.50
2023-05-09T15:31:32.143Z,19.50
2023-05-09T15:33:59.488Z,19.50
2023-05-09T15:36:27.293Z,19.50
2023-05-09T15:38:55.544Z,19.50
2023-05-09T15:41:22.418Z,19.60
2023-05-09T15:43:49.329Z,19.60
2023-05-09T15:46:16.232Z,19.60
2023-05-09T15:48:43.074Z,19.60
2023-05-09T15:51:09.980Z,19.60
2023-05-09T15:53:36.863Z,19.60
2023-05-09T15:56:05.656Z,19.70
2023-05-09T15:58:32.848Z,19.70
2023-05-09T16:00:59.709Z,19.70
2023-05-09T16:03:26.731Z,19.70
2023-05-09T16:05:53.716Z,19.70
2023-05-09T16:08:20.596Z,19.80
2023-05-09T16:10:47.529Z,19.80
2023-05-09T16:13:16.167Z,19.80
2023-05-09T16:15:43.122Z,19.90
2023-05-09T16:18:10.029Z,19.90
2023-05-09T16:20:36.915Z,19.90
2023-05-09T16:23:03.848Z,19.90
2023-05-09T16:25:31.794Z,19.90
2023-05-09T16:28:00.334Z,19.90
2023-05-09T16:30:28.639Z,19.90
2023-05-09T16:32:55.572Z,19.90
2023-05-09T16:35:22.599Z,19.80
2023-05-09T16:37:49.588Z,19.80
2023-05-09T16:40:16.942Z,19.80
2023-05-09T16:42:44.052Z,19.70
2023-05-09T16:45:11.476Z,19.70
2023-05-09T16:47:39.803Z,19.70
2023-05-09T16:50:07.260Z,19.70
2023-05-09T16:52:34.151Z,19.60
2023-05-09T16:55:01.053Z,19.60
2023-05-09T16:57:27.904Z,19.60
2023-05-09T16:59:54.805Z,19.60
2023-05-09T17:02:21.734Z,19.60
2023-05-09T17:04:50.001Z,19.60
2023-05-09T17:07:16.928Z,19.60
2023-05-09T17:09:43.807Z,19.60
2023-05-09T17:12:11.097Z,19.60
2023-05-09T17:14:37.975Z,19.60
2023-05-09T17:17:04.843Z,19.60
2023-05-09T17:19:31.723Z,19.60
2023-05-09T17:21:59.974Z,19.60
2023-05-09T17:24:26.833Z,19.50
2023-05-09T17:26:53.709Z,19.50
2023-05-09T17:29:20.595Z,19.50
2023-05-09T17:31:47.478Z,19.50
2023-05-09T17:34:14.347Z,19.50
2023-05-09T17:36:41.278Z,19.50
2023-05-09T17:39:09.510Z,19.50
2023-05-09T17:41:36.382Z,19.50
2023-05-09T17:44:03.276Z,19.50
2023-05-09T17:46:30.214Z,19.50
2023-05-09T17:48:57.137Z,19.60
2023-05-09T17:51:24.057Z,19.60
2023-05-09T17:53:50.973Z,19.60
2023-05-09T17:56:19.267Z,19.60
2023-05-09T17:58:46.275Z,19.60
2023-05-09T18:01:13.206Z,19.70
2023-05-09T18:03:40.235Z,19.70
2023-05-09T18:06:07.240Z,19.70
2023-05-09T18:08:34.111Z,19.70
2023-05-09T18:11:00.981Z,19.70
2023-05-09T18:13:29.308Z,19.70
2023-05-09T18:15:56.264Z,19.70
2023-05-09T18:18:23.250Z,19.70
2023-05-09T18:20:50.158Z,19.70
2023-05-09T18:23:17.044Z,19.70
2023-05-09T18:25:43.905Z,19.70
2023-05-09T18:28:10.787Z,19.80
2023-05-09T18:30:39.059Z,19.70
2023-05-09T18:33:05.978Z,19.70
2023-05-09T18:35:32.978Z,19.70
2023-05-09T18:37:59.907Z,19.70
2023-05-09T18:40:26.937Z,19.60
2023-05-09T18:42:53.842Z,19.60
2023-05-09T18:45:20.871Z,19.60
2023-05-09T18:47:49.263Z,19.50
2023-05-09T18:50:16.477Z,19.50
2023-05-09T18:52:43.607Z,19.50
2023-05-09T18:55:10.488Z,19.50
2023-05-09T18:57:37.360Z,19.50
2023-05-09T19:00:04.994Z,19.40
2023-05-09T19:02:31.961Z,19.40
2023-05-09T19:05:00.367Z,19.40
2023-05-09T19:07:27.251Z,19.40
2023-05-09T19:09:54.119Z,19.40
2023-05-09T19:12:20.979Z,19.40
2023-05-09T19:14:47.961Z,19.40
2023-05-09T19:17:14.956Z,19.40
2023-05-09T19:19:41.824Z,19.30
2023-05-09T19:22:10.083Z,19.30
2023-05-09T19:24:37.163Z,19.30
2023-05-09T19:27:04.069Z,19.30
2023-05-09T19:29:30.962Z,19.30
2023-05-09T19:31:57.813Z,19.30
2023-05-09T19:34:24.657Z,19.20
2023-05-09T19:36:51.537Z,19.20
2023-05-09T19:39:19.886Z,19.20
2023-05-09T19:41:46.871Z,19.20
2023-05-09T19:44:13.722Z,19.20
2023-05-09T19:46:40.642Z,19.10
2023-05-09T19:49:07.567Z,19.10
2023-05-09T19:51:34.463Z,19.10
2023-05-09T19:54:01.348Z,19.10
2023-05-09T19:56:29.697Z,19.20
2023-05-09T19:58:56.570Z,19.10
2023-05-09T20:01:23.976Z,19.10
2023-05-09T20:03:50.984Z,19.10
2023-05-09T20:06:19.442Z,19.00
2023-05-09T20:08:46.321Z,19.10
2023-05-09T20:11:13.231Z,19.00
2023-05-09T20:13:41.514Z,19.00
2023-05-09T20:16:08.454Z,19.00
2023-05-09T20:18:35.371Z,19.00
2023-05-09T20:21:02.456Z,19.00
2023-05-09T20:23:29.376Z,19.00
2023-05-09T20:25:56.371Z,18.90
2023-05-09T20:28:23.238Z,18.90
2023-05-09T20:30:51.461Z,18.90
2023-05-09T20:33:18.326Z,18.90
2023-05-09T20:35:45.201Z,18.90
2023-05-09T20:38:12.071Z,18.90
2023-05-09T20:40:38.994Z,18.90
2023-05-09T20:43:05.854Z,18.90
2023-05-09T20:45:32.834Z,18.80
2023-05-09T20:48:01.206Z,18.80
2023-05-09T20:50:28.069Z,18.80
2023-05-09T20:52:54.972Z,18.80
2023-05-09T20:55:21.985Z,18.80
2023-05-09T20:57:48.877Z,18.80
2023-05-09T21:00:16.240Z,18.80
2023-05-09T21:02:43.364Z,18.70
2023-05-09T21:05:11.753Z,18.70
2023-05-09T21:07:38.625Z,18.70
2023-05-09T21:10:06.493Z,18.70
2023-05-09T21:12:33.270Z,18.70
2023-05-09T21:15:00.167Z,18.70
2023-05-09T21:17:27.166Z,18.70
2023-05-09T21:19:54.114Z,18.70
2023-05-09T21:22:22.358Z,18.70
2023-05-09T21:24:49.214Z,18.60
2023-05-09T21:27:16.065Z,18.60
2023-05-09T21:29:42.980Z,18.60
2023-05-09T21:32:09.831Z,18.60
2023-05-09T21:34:36.702Z,18.60
2023-05-09T21:37:03.590Z,18.50
2023-05-09T21:39:33.420Z,18.60
2023-05-09T21:42:00.461Z,18.60
2023-05-09T21:44:27.307Z,18.50
2023-05-09T21:46:54.273Z,18.50
2023-05-09T21:49:21.787Z,18.50
2023-05-09T21:51:48.705Z,18.50
2023-05-09T21:54:15.560Z,18.50
2023-05-09T21:56:43.929Z,18.50
2023-05-09T21:59:10.841Z,18.40
2023-05-09T22:01:37.805Z,18.40
2023-05-09T22:04:05.309Z,18.40
2023-05-09T22:06:32.339Z,18.40
2023-05-09T22:08:59.348Z,18.50
2023-05-09T22:11:26.321Z,18.40
2023-05-09T22:13:54.558Z,18.40
2023-05-09T22:16:21.476Z,18.40
2023-05-09T22:18:48.352Z,18.40
2023-05-09T22:21:15.301Z,18.40
2023-05-09T22:23:42.151Z,18.40
2023-05-09T22:26:09.145Z,18.30
2023-05-09T22:28:36.349Z,18.40
2023-05-09T22:31:06.674Z,18.30
2023-05-09T22:33:33.564Z,18.30
2023-05-09T22:36:00.411Z,18.30
2023-05-09T22:38:27.403Z,18.30
2023-05-09T22:40:54.262Z,18.30
2023-05-09T22:43:21.216Z,18.30
2023-05-09T22:45:48.128Z,18.30
2023-05-09T22:48:16.393Z,18.20
2023-05-09T22:50:43.254Z,18.20
2023-05-09T22:53:10.120Z,18.20
2023-05-09T22:55:36.974Z,18.20
2023-05-09T22:58:03.831Z,18.20
2023-05-09T23:00:31.186Z,18.10
2023-05-09T23:02:58.203Z,18.20
2023-05-09T23:05:26.632Z,18.20
2023-05-09T23:07:53.512Z,18.20
2023-05-09T23:10:20.449Z,18.20
2023-05-09T23:12:47.363Z,18.20
2023-05-09T23:15:14.445Z,18.10
2023-05-09T23:17:41.396Z,18.20
2023-05-09T23:20:09.138Z,18.10
2023-05-09T23:22:37.425Z,18.10
2023-05-09T23:25:05.241Z,18.10
2023-05-09T23:27:32.224Z,18.10
2023-05-09T23:29:59.071Z,18.10
2023-05-09T23:32:25.991Z,18.00
2023-05-09T23:34:52.897Z,18.00
2023-05-09T23:37:19.890Z,18.10
2023-05-09T23:39:48.118Z,18.10
2023-05-09T23:42:14.987Z,18.10
2023-05-09T23:44:41.907Z,18.00
2023-05-09T23:47:08.819Z,18.00
2023-05-09T23:49:35.690Z,18.00
2023-05-09T23:52:02.566Z,18.00
2023-05-09T23:54:29.416Z,18.00
2023-05-09T23:56:57.709Z,18.00
2023-05-09T23:59:24.594Z,18.00
